Time;durP1;ratioP1;P1;durP2;ratioP2;P2;SDS_P1;SDS_P2;PMS_P1;PMS_P2;Temp;Humidity;BMP_temperature;BMP_pressure;BME280_temperature;BME280_humidity;BME280_pressure;Samples;Min_cycle;Max_cycle;Signal;HPM_P1;HPM_P2
2022/03/29 00:02:33;;;;;;;20.80;9.13;;;9.30;1.00;;;;;;4330918;28;657600;-86
2022/03/29 00:05:21;;;;;;;24.60;9.10;;;9.40;1.00;;;;;;4314655;28;656551;-86
2022/03/29 00:08:08;;;;;;;18.63;8.80;;;9.40;1.00;;;;;;4337991;28;656848;-86
2022/03/29 00:10:57;;;;;;;23.00;9.57;;;9.60;1.00;;;;;;4311097;28;656664;-86
2022/03/29 00:13:44;;;;;;;19.77;8.90;;;9.70;1.00;;;;;;4333953;28;656566;-87
2022/03/29 00:16:32;;;;;;;21.97;9.30;;;10.00;1.00;;;;;;4319909;28;656628;-87
2022/03/29 00:19:19;;;;;;;24.17;9.13;;;10.20;1.00;;;;;;4337971;28;657751;-88
2022/03/29 00:22:07;;;;;;;23.50;9.13;;;10.50;1.00;;;;;;4311756;28;657740;-87
2022/03/29 00:24:54;;;;;;;22.97;9.13;;;10.70;1.00;;;;;;4334479;28;658141;-87
2022/03/29 00:27:43;;;;;;;16.00;7.77;;;10.80;1.00;;;;;;4309196;28;657885;-87
2022/03/29 00:30:30;;;;;;;23.83;9.93;;;11.10;1.00;;;;;;4293373;28;658221;-87
2022/03/29 00:33:18;;;;;;;22.90;9.67;;;11.30;1.00;;;;;;4316678;28;658864;-87
2022/03/29 00:36:05;;;;;;;22.70;9.37;;;11.40;1.00;;;;;;4302402;28;658633;-88
2022/03/29 00:38:54;;;;;;;14.83;7.00;;;11.50;1.00;;;;;;4309402;28;658481;-86
2022/03/29 00:41:41;;;;;;;20.33;10.17;;;11.50;1.00;;;;;;4293265;28;658022;-87
2022/03/29 00:44:31;;;;;;;25.17;12.17;;;11.60;1.00;;;;;;4312185;28;658999;-86
2022/03/29 00:47:19;;;;;;;30.30;12.43;;;11.40;1.00;;;;;;4302066;28;659089;-86
2022/03/29 00:50:07;;;;;;;28.00;11.88;;;11.30;1.00;;;;;;4288341;28;659105;-86
2022/03/29 00:52:54;;;;;;;24.83;13.10;;;11.10;1.00;;;;;;4319106;28;658911;-86
2022/03/29 00:55:41;;;;;;;27.30;12.50;;;10.80;1.00;;;;;;4288894;28;658512;-86
2022/03/29 00:58:29;;;;;;;25.07;12.83;;;10.60;99.90;;;;;;4314427;28;658757;-86
2022/03/29 01:01:18;;;;;;;28.30;12.60;;;10.40;1.00;;;;;;4292539;28;659377;-86
2022/03/29 01:04:07;;;;;;;28.57;12.10;;;10.20;99.90;;;;;;4307903;28;658428;-87
2022/03/29 01:06:57;;;;;;;24.03;12.73;;;10.20;99.90;;;;;;4309949;28;659788;-86
2022/03/29 01:09:44;;;;;;;26.73;12.97;;;10.20;99.90;;;;;;4301415;28;659766;-87
2022/03/29 01:12:32;;;;;;;29.13;12.67;;;10.10;99.90;;;;;;4294223;28;660412;-87
2022/03/29 01:15:19;;;;;;;27.60;12.90;;;9.90;55.50;;;;;;4314720;28;659854;-86
2022/03/29 01:18:07;;;;;;;26.25;12.80;;;9.90;1.00;;;;;;4290670;28;659153;-86
2022/03/29 01:20:55;;;;;;;24.63;13.13;;;10.00;1.00;;;;;;4321084;28;657916;-87
2022/03/29 01:23:44;;;;;;;26.80;14.10;;;9.90;1.00;;;;;;4293827;28;659556;-87
2022/03/29 01:26:33;;;;;;;37.57;15.07;;;9.90;99.90;;;;;;4291060;28;658247;-87
2022/03/29 01:29:21;;;;;;;33.10;15.63;;;9.90;99.90;;;;;;4307693;28;658868;-87
2022/03/29 01:32:09;;;;;;;33.83;14.93;;;9.90;99.90;;;;;;4324084;28;659832;-88
2022/03/29 01:34:57;;;;;;;33.17;15.70;;;9.80;99.90;;;;;;4315678;28;658848;-88
2022/03/29 01:37:44;;;;;;;34.07;15.33;;;9.90;99.90;;;;;;4330694;28;659239;-88
2022/03/29 01:40:33;;;;;;;32.17;15.43;;;9.70;99.90;;;;;;4293759;28;660121;-88
2022/03/29 01:43:20;;;;;;;28.97;15.10;;;9.60;99.90;;;;;;4309904;28;659086;-88
2022/03/29 01:46:12;;;;;;;31.60;15.43;;;9.50;99.90;;;;;;4335774;28;660296;-87
2022/03/29 01:48:59;;;;;;;28.45;15.68;;;9.30;99.90;;;;;;4314641;28;659330;-90
2022/03/29 01:51:46;;;;;;;35.67;18.33;;;9.10;1.00;;;;;;4316564;28;658962;-89
2022/03/29 01:54:34;;;;;;;39.47;19.37;;;9.00;1.00;;;;;;4333444;28;657679;-88
2022/03/29 01:57:27;;;;;;;40.13;19.20;;;8.90;1.00;;;;;;4319631;28;657408;-88
2022/03/29 02:03:21;;;;;;;46.50;21.40;;;8.70;65.60;;;;;;4314318;28;658016;-88
2022/03/29 02:06:09;;;;;;;44.63;22.10;;;8.60;99.90;;;;;;4329995;28;659293;-87
2022/03/29 02:08:59;;;;;;;51.97;25.20;;;8.70;99.90;;;;;;4315178;28;658550;-88
2022/03/29 02:11:46;;;;;;;47.17;23.20;;;8.80;99.90;;;;;;4312733;28;658623;-89
2022/03/29 02:14:35;;;;;;;52.28;22.63;;;8.70;99.90;;;;;;4324666;28;658944;-88
2022/03/29 02:17:22;;;;;;;45.30;21.30;;;8.50;99.90;;;;;;4307272;28;658847;-88
2022/03/29 02:20:10;;;;;;;48.43;24.03;;;8.30;99.90;;;;;;4329036;28;658716;-88
2022/03/29 02:23:02;;;;;;;50.07;23.17;;;8.30;1.00;;;;;;4296429;28;659191;-87
2022/03/29 02:25:49;;;;;;;46.80;23.57;;;8.10;1.00;;;;;;4299555;28;658136;-88
2022/03/29 02:28:37;;;;;;;50.83;23.13;;;8.10;99.90;;;;;;4304733;28;658027;-87
2022/03/29 02:31:25;;;;;;;45.13;21.77;;;8.10;1.00;;;;;;4332013;28;658782;-88
2022/03/29 02:34:13;;;;;;;45.50;22.10;;;8.00;99.90;;;;;;4311772;28;658294;-87
2022/03/29 02:37:00;;;;;;;46.60;20.57;;;7.90;1.00;;;;;;4312575;28;659308;-87
2022/03/29 02:39:48;;;;;;;42.60;20.10;;;7.80;99.90;;;;;;4333902;28;658521;-87
2022/03/29 02:42:41;;;;;;;36.43;18.80;;;7.70;1.00;;;;;;4309300;28;658850;-88
2022/03/29 02:45:28;;;;;;;41.73;20.17;;;7.60;1.00;;;;;;4300717;28;657910;-88
2022/03/29 02:48:17;;;;;;;41.83;20.57;;;7.60;1.00;;;;;;4297742;28;658062;-88
2022/03/29 02:51:04;;;;;;;39.77;18.00;;;7.50;9.70;;;;;;4329643;28;657433;-87
2022/03/29 02:53:52;;;;;;;42.50;21.40;;;7.50;1.00;;;;;;4306235;28;657809;-87
2022/03/29 02:56:39;;;;;;;38.07;20.10;;;7.30;1.00;;;;;;4318971;28;657543;-87
2022/03/29 02:59:27;;;;;;;42.15;20.75;;;7.10;99.90;;;;;;4303616;28;657515;-87
2022/03/29 03:02:14;;;;;;;40.60;19.87;;;7.00;48.10;;;;;;4330387;28;659333;-87
2022/03/29 03:05:03;;;;;;;47.70;23.30;;;6.90;99.90;;;;;;4308765;28;659068;-87
2022/03/29 03:07:51;;;;;;;37.13;18.73;;;6.90;1.00;;;;;;4311485;28;658755;-88
2022/03/29 03:10:38;;;;;;;39.50;18.67;;;6.90;99.90;;;;;;4342051;28;658274;-88
2022/03/29 03:13:25;;;;;;;43.17;20.57;;;6.90;1.00;;;;;;4307663;28;658522;-88
2022/03/29 03:16:13;;;;;;;52.63;26.23;;;6.90;5.60;;;;;;4331917;28;658463;-88
2022/03/29 03:19:00;;;;;;;45.93;24.33;;;6.90;1.00;;;;;;4306778;28;658596;-87
2022/03/29 03:21:49;;;;;;;35.87;18.40;;;7.00;1.00;;;;;;4329024;28;658829;-86
2022/03/29 03:24:37;;;;;;;48.20;24.43;;;7.00;1.00;;;;;;4293299;28;657556;-87
2022/03/29 03:27:24;;;;;;;48.53;21.07;;;7.00;1.00;;;;;;4329649;28;657267;-87
2022/03/29 03:30:13;;;;;;;49.07;25.23;;;7.00;1.00;;;;;;4306694;28;657758;-87
2022/03/29 03:33:00;;;;;;;45.67;21.20;;;7.00;1.00;;;;;;4306545;28;657856;-87
2022/03/29 03:35:48;;;;;;;42.60;21.97;;;7.00;1.00;;;;;;4327667;28;658353;-87
2022/03/29 03:38:37;;;;;;;44.30;22.13;;;6.90;1.00;;;;;;4320282;28;657879;-88
2022/03/29 03:41:24;;;;;;;43.13;23.23;;;6.90;54.40;;;;;;4325951;28;658200;-88
2022/03/29 03:44:11;;;;;;;52.83;23.63;;;6.80;1.00;;;;;;4310874;28;658441;-88
2022/03/29 03:47:00;;;;;;;47.70;24.17;;;6.70;99.90;;;;;;4322028;28;658808;-87
2022/03/29 03:49:47;;;;;;;49.63;25.57;;;6.60;1.00;;;;;;4302197;28;659719;-89
2022/03/29 03:52:35;;;;;;;46.97;23.37;;;6.60;55.10;;;;;;4328465;28;658039;-89
2022/03/29 03:55:23;;;;;;;47.20;23.97;;;6.60;1.00;;;;;;4303801;28;658980;-87
2022/03/29 03:58:13;;;;;;;46.90;22.90;;;6.50;99.90;;;;;;4303601;28;657332;-87
2022/03/29 04:01:01;;;;;;;46.60;24.07;;;6.40;99.90;;;;;;4308829;28;658670;-87
2022/03/29 04:03:48;;;;;;;54.30;24.20;;;6.40;99.90;;;;;;4332375;28;659438;-87
2022/03/29 04:06:35;;;;;;;45.17;21.90;;;6.30;99.90;;;;;;4296432;29;658806;-88
2022/03/29 04:09:24;;;;;;;43.67;21.90;;;6.30;1.00;;;;;;4320371;28;659467;-88
2022/03/29 04:12:13;;;;;;;44.40;23.73;;;6.30;1.00;;;;;;4310041;28;657578;-89
2022/03/29 04:15:00;;;;;;;50.97;24.30;;;6.30;1.00;;;;;;4310893;28;658802;-89
2022/03/29 04:17:48;;;;;;;47.77;23.43;;;6.40;1.00;;;;;;4341518;28;657953;-90
2022/03/29 04:20:35;;;;;;;44.13;22.50;;;6.40;1.00;;;;;;4315804;28;657787;-90
2022/03/29 04:23:23;;;;;;;40.77;22.47;;;6.50;1.00;;;;;;4338894;28;658734;-90
2022/03/29 04:26:10;;;;;;;46.47;23.40;;;6.50;1.00;;;;;;4312434;28;657475;-89
2022/03/29 04:28:59;;;;;;;52.03;27.67;;;6.50;1.00;;;;;;4335020;28;658602;-90
2022/03/29 04:31:47;;;;;;;50.90;26.97;;;6.60;1.00;;;;;;4307282;28;657575;-89
2022/03/29 04:34:34;;;;;;;64.40;33.27;;;6.60;1.00;;;;;;4337827;28;658123;-88
2022/03/29 04:37:24;;;;;;;63.37;33.23;;;6.60;1.00;;;;;;4316813;28;657779;-88
2022/03/29 04:40:12;;;;;;;55.67;32.40;;;6.60;1.00;;;;;;4313659;28;657490;-88
2022/03/29 04:43:01;;;;;;;51.10;24.13;;;6.70;1.00;;;;;;4328630;28;658687;-88
2022/03/29 04:45:50;;;;;;;53.80;27.27;;;6.70;99.90;;;;;;4319235;28;657784;-87
2022/03/29 04:48:37;;;;;;;54.47;25.50;;;6.80;1.00;;;;;;4301099;28;659117;-87
2022/03/29 04:51:24;;;;;;;47.70;23.87;;;7.00;99.90;;;;;;4335317;28;658104;-88
2022/03/29 04:54:12;;;;;;;41.67;22.80;;;7.10;99.90;;;;;;4315648;28;658706;-87
2022/03/29 04:57:00;;;;;;;42.97;23.37;;;7.40;1.00;;;;;;4333840;28;659165;-87
2022/03/29 04:59:47;;;;;;;41.40;22.10;;;7.50;26.70;;;;;;4318283;28;658534;-87
2022/03/29 05:02:37;;;;;;;39.73;20.57;;;7.70;1.00;;;;;;4329947;28;658459;-86
2022/03/29 05:05:25;;;;;;;38.97;20.50;;;7.90;1.00;;;;;;4312431;28;657674;-87
2022/03/29 05:08:12;;;;;;;37.63;19.30;;;8.00;99.90;;;;;;4321414;28;657805;-86
2022/03/29 05:11:00;;;;;;;42.53;19.83;;;8.30;1.00;;;;;;4328046;28;658677;-87
2022/03/29 05:13:48;;;;;;;41.50;21.13;;;8.40;99.90;;;;;;4332251;28;658157;-86
2022/03/29 05:16:35;;;;;;;40.33;20.20;;;8.50;1.00;;;;;;4321661;28;658827;-87
2022/03/29 05:19:24;;;;;;;38.50;20.73;;;8.60;99.90;;;;;;4331142;28;659119;-87
2022/03/29 05:22:12;;;;;;;42.20;21.33;;;8.70;1.00;;;;;;4310881;28;658482;-87
2022/03/29 05:24:59;;;;;;;44.90;21.33;;;8.80;1.00;;;;;;4342829;28;657765;-87
2022/03/29 05:27:47;;;;;;;42.97;20.90;;;8.80;1.00;;;;;;4316078;28;657563;-87
2022/03/29 05:30:34;;;;;;;36.80;20.13;;;8.90;99.90;;;;;;4322833;28;657403;-87
2022/03/29 05:33:21;;;;;;;40.88;20.15;;;9.00;99.90;;;;;;4305946;29;658895;-87
2022/03/29 05:36:12;;;;;;;43.00;20.30;;;9.10;99.90;;;;;;4320836;29;658681;-87
2022/03/29 05:38:59;;;;;;;47.67;21.97;;;9.20;1.00;;;;;;4305171;28;658901;-86
2022/03/29 05:41:47;;;;;;;41.50;21.30;;;9.40;1.00;;;;;;4301233;28;658046;-87
2022/03/29 05:44:35;;;;;;;40.07;21.50;;;9.50;99.90;;;;;;4331469;28;657686;-87
2022/03/29 05:50:27;;;;;;;46.90;22.37;;;9.70;99.90;;;;;;4293944;29;659639;-87
2022/03/29 05:53:16;;;;;;;43.10;22.40;;;9.70;99.90;;;;;;4323650;29;658266;-87
2022/03/29 05:56:03;;;;;;;44.10;22.40;;;9.70;99.90;;;;;;4300869;28;659268;-87
2022/03/29 05:58:51;;;;;;;51.73;21.67;;;9.70;99.90;;;;;;4299800;28;659052;-85
2022/03/29 06:01:39;;;;;;;41.77;20.60;;;9.80;99.90;;;;;;4299955;29;659110;-86
2022/03/29 06:04:26;;;;;;;42.88;19.95;;;9.80;99.90;;;;;;4296432;29;658429;-86
2022/03/29 06:07:15;;;;;;;58.35;21.40;;;9.90;99.90;;;;;;4313603;28;659199;-87
2022/03/29 06:10:04;;;;;;;54.20;21.73;;;9.90;99.90;;;;;;4297777;29;659146;-86
2022/03/29 06:12:51;;;;;;;43.23;21.27;;;9.80;1.00;;;;;;4302658;29;658774;-86
2022/03/29 06:15:39;;;;;;;46.90;22.47;;;9.80;1.00;;;;;;4318087;29;658987;-87
2022/03/29 06:18:26;;;;;;;46.37;23.43;;;9.90;1.00;;;;;;4301257;28;657649;-87
2022/03/29 06:21:16;;;;;;;47.37;23.43;;;9.70;99.90;;;;;;4323207;29;657911;-86
2022/03/29 06:24:04;;;;;;;49.37;23.50;;;9.60;1.00;;;;;;4302526;29;659525;-87
2022/03/29 06:26:53;;;;;;;55.23;23.67;;;9.50;51.70;;;;;;4304666;28;657738;-86
2022/03/29 06:29:40;;;;;;;42.70;22.42;;;9.40;1.00;;;;;;4307311;28;658637;-86
2022/03/29 06:32:28;;;;;;;48.57;23.90;;;9.30;1.00;;;;;;4339270;28;658323;-87
2022/03/29 06:35:17;;;;;;;46.35;24.42;;;9.30;1.00;;;;;;4322306;28;657785;-86
2022/03/29 06:38:06;;;;;;;47.77;25.07;;;9.10;1.00;;;;;;4334439;28;657542;-86
2022/03/29 06:40:54;;;;;;;47.73;24.97;;;9.10;99.90;;;;;;4328287;29;657644;-86
2022/03/29 06:43:43;;;;;;;58.30;26.33;;;9.00;1.00;;;;;;4312610;28;659294;-86
2022/03/29 06:46:30;;;;;;;51.53;26.20;;;8.90;1.00;;;;;;4311910;28;657516;-86
2022/03/29 06:49:18;;;;;;;49.37;25.53;;;8.90;1.00;;;;;;4334587;28;658060;-87
2022/03/29 06:52:07;;;;;;;56.10;25.87;;;9.00;99.90;;;;;;4309270;28;657693;-86
2022/03/29 06:54:55;;;;;;;48.37;25.07;;;9.00;1.00;;;;;;4331960;28;658823;-85
2022/03/29 06:57:42;;;;;;;59.20;27.93;;;9.10;1.00;;;;;;4313022;28;658116;-86
2022/03/29 07:00:31;;;;;;;51.60;25.87;;;9.00;99.90;;;;;;4339088;28;657243;-86
2022/03/29 07:03:21;;;;;;;54.43;26.43;;;9.10;99.90;;;;;;4310497;28;659147;-86
2022/03/29 07:06:09;;;;;;;52.50;27.30;;;9.10;75.20;;;;;;4313296;28;659262;-86
2022/03/29 07:12:05;;;;;;;56.00;30.23;;;9.20;2.20;;;;;;4284379;28;658808;-85
2022/03/29 07:14:52;;;;;;;60.53;30.70;;;9.30;99.90;;;;;;4309492;28;658818;-85
2022/03/29 07:17:41;;;;;;;56.43;29.67;;;9.50;99.90;;;;;;4332941;28;658190;-86
2022/03/29 07:20:28;;;;;;;52.50;26.90;;;9.80;99.90;;;;;;4310560;28;659830;-85
2022/03/29 07:23:16;;;;;;;46.13;22.47;;;10.00;1.00;;;;;;4311483;28;658658;-87
2022/03/29 07:26:03;;;;;;;49.47;26.07;;;10.30;1.00;;;;;;4322335;28;659720;-85
2022/03/29 07:28:51;;;;;;;47.93;24.53;;;10.60;99.90;;;;;;4309989;28;658624;-86
2022/03/29 07:31:38;;;;;;;49.13;24.40;;;10.80;52.10;;;;;;4325680;29;661447;-85
2022/03/29 07:34:27;;;;;;;48.40;26.20;;;11.00;1.00;;;;;;4303229;29;659737;-86
2022/03/29 07:37:14;;;;;;;54.47;28.15;;;11.30;1.00;;;;;;4321502;29;659299;-87
2022/03/29 07:40:02;;;;;;;45.35;25.85;;;11.40;99.90;;;;;;4298676;29;659015;-86
2022/03/29 07:42:50;;;;;;;46.73;25.27;;;11.60;99.90;;;;;;4311157;29;659615;-85
2022/03/29 07:45:37;;;;;;;46.73;25.17;;;11.70;99.90;;;;;;4300987;29;660796;-85
2022/03/29 07:48:25;;;;;;;45.67;23.70;;;11.60;53.90;;;;;;4326160;29;659811;-87
2022/03/29 07:51:13;;;;;;;41.60;21.17;;;11.50;48.30;;;;;;4294475;29;660314;-85
2022/03/29 07:54:03;;;;;;;50.27;20.27;;;11.50;99.90;;;;;;4285384;29;659422;-87
2022/03/29 07:56:50;;;;;;;46.67;24.75;;;11.40;29.90;;;;;;4303311;28;659995;-86
2022/03/29 07:59:38;;;;;;;47.87;23.53;;;11.50;30.30;;;;;;4318051;29;660597;-86
2022/03/29 08:02:25;;;;;;;35.80;16.77;;;11.60;99.90;;;;;;4302341;29;659847;-86
2022/03/29 08:05:13;;;;;;;51.00;24.80;;;11.80;62.00;;;;;;4307790;29;661171;-86
2022/03/29 08:08:02;;;;;;;35.60;18.60;;;11.80;23.10;;;;;;4303790;29;659588;-86
2022/03/29 08:10:50;;;;;;;43.40;22.30;;;11.90;69.50;;;;;;4320611;29;659457;-85
2022/03/29 08:13:38;;;;;;;41.37;21.23;;;12.10;99.90;;;;;;4322405;29;660224;-85
2022/03/29 08:16:27;;;;;;;39.20;20.87;;;12.10;1.00;;;;;;4306089;29;660196;-85
2022/03/29 08:19:15;;;;;;;34.40;16.80;;;12.20;1.00;;;;;;4321754;29;658582;-85
2022/03/29 08:22:03;;;;;;;32.50;17.73;;;12.30;1.00;;;;;;4307121;28;658879;-85
2022/03/29 08:24:52;;;;;;;32.73;17.13;;;12.20;1.00;;;;;;4318536;29;658583;-86
2022/03/29 08:27:39;;;;;;;32.27;17.03;;;12.10;1.00;;;;;;4329799;28;658507;-86
2022/03/29 08:30:27;;;;;;;32.90;16.93;;;12.00;1.00;;;;;;4305971;28;658821;-86
2022/03/29 08:33:15;;;;;;;32.63;16.77;;;11.90;1.00;;;;;;4328430;28;659430;-85
2022/03/29 08:36:03;;;;;;;33.47;17.20;;;11.80;1.00;;;;;;4334133;28;659433;-86
2022/03/29 08:38:50;;;;;;;30.60;17.20;;;11.90;1.00;;;;;;4313830;28;658406;-87
2022/03/29 08:41:41;;;;;;;41.47;18.70;;;11.90;1.00;;;;;;4335989;28;659482;-86
2022/03/29 08:44:28;;;;;;;41.60;20.77;;;11.90;1.00;;;;;;4308929;28;659419;-86
2022/03/29 08:47:16;;;;;;;39.87;19.80;;;11.80;1.00;;;;;;4320338;28;658813;-86
2022/03/29 08:50:04;;;;;;;49.50;25.03;;;11.90;1.00;;;;;;4335152;28;658912;-87
2022/03/29 08:52:51;;;;;;;45.80;23.73;;;12.00;1.00;;;;;;4301828;28;658937;-86
2022/03/29 08:55:42;;;;;;;42.43;22.80;;;12.20;1.00;;;;;;4312402;28;660013;-86
2022/03/29 08:58:31;;;;;;;40.97;22.50;;;12.60;1.00;;;;;;4301724;28;658968;-86
2022/03/29 09:01:21;;;;;;;43.43;23.40;;;12.70;1.00;;;;;;4315085;28;659349;-85
2022/03/29 09:04:09;;;;;;;34.93;17.77;;;12.70;1.00;;;;;;4313778;28;659359;-86
2022/03/29 09:06:58;;;;;;;39.47;21.43;;;12.40;1.00;;;;;;4321167;28;658589;-86
2022/03/29 09:09:46;;;;;;;37.73;19.47;;;12.40;1.00;;;;;;4313378;28;658517;-87
2022/03/29 09:12:34;;;;;;;44.23;21.33;;;12.30;1.00;;;;;;4335373;28;660499;-87
2022/03/29 09:15:25;;;;;;;37.97;20.40;;;12.40;1.00;;;;;;4313727;28;658526;-87
2022/03/29 09:18:13;;;;;;;21.03;9.10;;;12.60;1.00;;;;;;4314072;28;659209;-83
2022/03/29 09:21:08;;;;;;;30.47;14.97;;;12.80;1.00;;;;;;4316288;28;658049;-85
2022/03/29 09:24:06;;;;;;;28.77;15.17;;;12.80;1.00;;;;;;4299281;29;659055;-84
2022/03/29 09:26:54;;;;;;;28.57;15.40;;;12.70;1.00;;;;;;4310083;28;658964;-84
2022/03/29 09:29:41;;;;;;;33.83;17.00;;;12.70;1.00;;;;;;4317560;28;659045;-84
2022/03/29 09:32:30;;;;;;;30.70;15.20;;;12.70;1.00;;;;;;4330436;28;659228;-85
2022/03/29 09:35:18;;;;;;;28.30;14.77;;;13.00;1.00;;;;;;4309755;28;658719;-85
2022/03/29 09:38:21;;;;;;;26.75;14.63;;;13.20;1.00;;;;;;4315787;28;659069;-85
2022/03/29 09:41:20;;;;;;;30.20;14.27;;;13.30;1.00;;;;;;4298102;28;659484;-85
2022/03/29 09:44:09;;;;;;;24.43;13.07;;;13.30;1.00;;;;;;4309592;28;658996;-85
2022/03/29 09:47:01;;;;;;;35.23;14.17;;;13.30;1.00;;;;;;4306330;28;658614;-84
2022/03/29 09:49:54;;;;;;;26.47;13.23;;;13.30;1.00;;;;;;4313855;28;660224;-84
2022/03/29 09:52:44;;;;;;;22.40;13.07;;;13.30;1.00;;;;;;4308035;28;658511;-86
2022/03/29 09:55:34;;;;;;;26.87;12.63;;;13.20;1.00;;;;;;4296095;28;658451;-86
2022/03/29 09:58:22;;;;;;;24.87;12.83;;;13.30;1.00;;;;;;4303177;28;658869;-86
2022/03/29 10:01:22;;;;;;;30.17;12.77;;;13.30;1.00;;;;;;4323871;28;658338;-85
2022/03/29 10:04:11;;;;;;;23.90;12.03;;;13.40;1.00;;;;;;4329372;28;658425;-87
2022/03/29 10:07:06;;;;;;;20.17;10.43;;;13.50;1.00;;;;;;4332384;28;658988;-87
2022/03/29 10:09:54;;;;;;;26.13;13.37;;;13.70;1.00;;;;;;4296392;28;659727;-87
2022/03/29 10:12:42;;;;;;;19.00;8.40;;;13.40;1.00;;;;;;4269391;28;658627;-86
2022/03/29 10:15:32;;;;;;;15.07;7.13;;;13.40;1.00;;;;;;4309431;28;658842;-86
2022/03/29 10:18:21;;;;;;;30.63;14.87;;;13.20;1.00;;;;;;4267728;28;657862;-87
2022/03/29 10:21:11;;;;;;;25.97;13.77;;;13.20;1.00;;;;;;4317430;28;659021;-86
2022/03/29 10:24:01;;;;;;;26.80;13.53;;;13.20;1.00;;;;;;4320782;28;659091;-86
2022/03/29 10:27:09;;;;;;;32.13;15.17;;;13.40;1.00;;;;;;4319768;28;659389;-85
2022/03/29 10:29:57;;;;;;;18.07;8.13;;;13.70;1.00;;;;;;4308982;28;659136;-85
2022/03/29 10:32:44;;;;;;;22.03;10.53;;;13.80;1.00;;;;;;4319682;28;657810;-84
2022/03/29 10:35:32;;;;;;;31.90;15.33;;;14.00;1.00;;;;;;4318554;28;658697;-86
2022/03/29 10:38:19;;;;;;;36.87;16.17;;;13.90;1.00;;;;;;4321799;28;658172;-85
2022/03/29 10:41:11;;;;;;;30.97;16.07;;;13.60;1.00;;;;;;4308334;28;658686;-85
2022/03/29 10:44:01;;;;;;;38.50;18.33;;;13.60;1.00;;;;;;4312417;28;659773;-86
2022/03/29 10:46:49;;;;;;;34.83;18.13;;;13.50;1.00;;;;;;4315177;28;659303;-85
2022/03/29 10:49:37;;;;;;;35.10;17.67;;;13.70;1.00;;;;;;4312901;28;658527;-85
2022/03/29 10:52:37;;;;;;;37.63;17.73;;;13.90;1.00;;;;;;4331637;28;658517;-86
2022/03/29 10:55:27;;;;;;;36.40;18.67;;;14.20;1.00;;;;;;4314298;28;659039;-86
2022/03/29 10:58:20;;;;;;;32.77;18.53;;;14.40;1.00;;;;;;4319121;28;658882;-86
2022/03/29 11:01:15;;;;;;;29.90;13.82;;;14.40;1.00;;;;;;4309269;28;658884;-86
2022/03/29 11:04:03;;;;;;;34.57;17.17;;;14.20;1.00;;;;;;4316826;28;658941;-87
2022/03/29 11:07:14;;;;;;;30.93;16.27;;;13.90;1.00;;;;;;4319584;28;659408;-86
2022/03/29 11:10:10;;;;;;;33.87;17.77;;;13.90;1.00;;;;;;4318735;28;659105;-86
2022/03/29 11:12:57;;;;;;;38.40;18.07;;;14.10;1.00;;;;;;4315105;28;658699;-87
2022/03/29 11:15:48;;;;;;;32.53;17.43;;;14.20;1.00;;;;;;4333563;28;658684;-87
2022/03/29 11:18:40;;;;;;;27.30;15.73;;;14.30;1.00;;;;;;4320051;28;658361;-87
2022/03/29 11:21:38;;;;;;;27.77;15.53;;;14.60;1.00;;;;;;4312368;28;659532;-86
2022/03/29 11:24:25;;;;;;;32.73;15.87;;;14.70;1.00;;;;;;4300875;28;658901;-87
2022/03/29 11:27:13;;;;;;;28.80;16.17;;;14.80;1.00;;;;;;4335033;28;659681;-86
2022/03/29 11:30:01;;;;;;;28.47;14.90;;;14.70;1.00;;;;;;4315489;28;658520;-86
2022/03/29 11:32:50;;;;;;;35.72;16.95;;;14.80;1.00;;;;;;4339319;28;659542;-87
2022/03/29 11:35:39;;;;;;;28.60;14.93;;;15.20;1.00;;;;;;4292619;28;659510;-87
2022/03/29 11:38:27;;;;;;;17.33;8.03;;;15.50;1.00;;;;;;4303704;28;658862;-86
2022/03/29 11:41:21;;;;;;;31.60;14.90;;;15.50;1.00;;;;;;4335619;28;657635;-86
2022/03/29 11:44:09;;;;;;;22.70;11.80;;;15.30;1.00;;;;;;4310588;28;659360;-87
2022/03/29 11:46:57;;;;;;;27.33;14.97;;;15.00;1.00;;;;;;4312633;28;658641;-86
2022/03/29 11:49:49;;;;;;;31.30;14.50;;;14.80;1.00;;;;;;4331640;28;658138;-86
2022/03/29 11:52:38;;;;;;;29.10;15.63;;;14.80;1.00;;;;;;4312564;28;658711;-86
2022/03/29 11:55:26;;;;;;;15.87;7.37;;;14.60;1.00;;;;;;4324499;28;658798;-84
2022/03/29 11:58:23;;;;;;;26.23;15.30;;;14.40;1.00;;;;;;4336383;28;658243;-86
2022/03/29 12:01:11;;;;;;;32.57;13.10;;;14.00;1.00;;;;;;4328545;28;658365;-85
2022/03/29 12:04:00;;;;;;;26.33;14.83;;;13.90;1.00;;;;;;4330054;28;658430;-85
2022/03/29 12:06:51;;;;;;;26.80;12.20;;;13.90;1.00;;;;;;4305784;28;659348;-85
2022/03/29 12:09:38;;;;;;;28.40;14.53;;;14.00;1.00;;;;;;4309221;28;659106;-85
2022/03/29 12:12:26;;;;;;;26.40;13.70;;;14.00;1.00;;;;;;4312956;28;659072;-85
2022/03/29 12:15:14;;;;;;;30.90;13.53;;;14.00;1.00;;;;;;4335097;28;658919;-85
2022/03/29 12:21:03;;;;;;;21.43;10.07;;;14.20;1.00;;;;;;4316750;28;659255;-86
2022/03/29 12:24:06;;;;;;;27.90;15.83;;;14.20;1.00;;;;;;4320158;28;658979;-86
2022/03/29 12:26:55;;;;;;;27.17;15.23;;;14.40;1.00;;;;;;4311403;28;658559;-87
2022/03/29 12:29:44;;;;;;;26.47;13.67;;;14.60;1.00;;;;;;4306679;28;659401;-88
2022/03/29 12:32:32;;;;;;;29.57;14.73;;;14.80;1.00;;;;;;4316369;28;658502;-86
2022/03/29 12:35:20;;;;;;;26.60;14.60;;;15.10;1.00;;;;;;4322306;29;658526;-88
2022/03/29 12:38:08;;;;;;;30.17;15.33;;;14.90;1.00;;;;;;4286473;28;658332;-88
2022/03/29 12:41:00;;;;;;;24.93;14.00;;;14.80;1.00;;;;;;4297845;29;659062;-87
2022/03/29 12:43:57;;;;;;;21.83;10.83;;;14.70;1.00;;;;;;4315176;28;659789;-87
2022/03/29 12:46:45;;;;;;;24.40;13.30;;;14.70;1.00;;;;;;4311758;28;658912;-86
2022/03/29 12:49:33;;;;;;;20.43;10.43;;;15.00;1.00;;;;;;4308930;28;659256;-87
2022/03/29 12:52:21;;;;;;;22.70;12.83;;;14.90;1.00;;;;;;4317205;28;658796;-86
2022/03/29 12:55:09;;;;;;;23.47;11.90;;;14.80;1.00;;;;;;4329878;28;659533;-87
2022/03/29 12:58:02;;;;;;;26.33;15.07;;;14.70;1.00;;;;;;4296234;28;658362;-87
2022/03/29 13:00:49;;;;;;;13.80;7.67;;;14.90;1.00;;;;;;4309414;28;659661;-86
2022/03/29 13:03:38;;;;;;;24.33;13.40;;;15.00;1.00;;;;;;4315640;28;657504;-86
2022/03/29 13:06:25;;;;;;;18.37;9.87;;;14.90;1.00;;;;;;4303321;28;658723;-86
2022/03/29 13:09:14;;;;;;;30.63;14.70;;;15.00;1.00;;;;;;4335633;28;658177;-87
2022/03/29 13:12:12;;;;;;;29.10;13.80;;;14.90;1.00;;;;;;4312770;28;658584;-87
2022/03/29 13:15:01;;;;;;;24.70;13.67;;;14.80;1.00;;;;;;4318004;28;658851;-85
2022/03/29 13:17:49;;;;;;;16.10;8.87;;;15.10;1.00;;;;;;4317167;28;659087;-86
2022/03/29 13:20:37;;;;;;;28.93;13.90;;;14.90;1.00;;;;;;4313318;28;657969;-86
2022/03/29 13:23:31;;;;;;;20.87;10.67;;;14.80;1.00;;;;;;4334009;28;658883;-86
2022/03/29 13:26:19;;;;;;;27.13;14.03;;;15.10;1.00;;;;;;4316216;28;659049;-85
2022/03/29 13:29:08;;;;;;;27.87;14.90;;;15.10;1.00;;;;;;4315745;28;658655;-87
2022/03/29 13:31:57;;;;;;;27.23;14.80;;;15.40;1.00;;;;;;4323181;28;658815;-87
2022/03/29 13:34:44;;;;;;;28.60;14.53;;;15.40;1.00;;;;;;4336820;28;658893;-86
2022/03/29 13:37:32;;;;;;;28.70;14.63;;;15.30;1.00;;;;;;4304634;28;658594;-87
2022/03/29 13:40:19;;;;;;;27.10;14.97;;;15.50;1.00;;;;;;4334064;28;659183;-86
2022/03/29 13:43:07;;;;;;;23.97;13.03;;;15.80;1.00;;;;;;4318710;28;658662;-86
2022/03/29 13:45:54;;;;;;;30.97;15.17;;;16.00;1.00;;;;;;4335006;28;658880;-85
2022/03/29 13:48:43;;;;;;;32.43;15.27;;;16.00;1.00;;;;;;4318642;28;659410;-85
2022/03/29 13:51:31;;;;;;;35.03;15.13;;;15.60;1.00;;;;;;4310145;28;658763;-85
2022/03/29 13:54:18;;;;;;;32.80;16.07;;;15.50;1.00;;;;;;4337531;28;658689;-85
2022/03/29 13:57:06;;;;;;;29.70;15.60;;;15.60;1.00;;;;;;4305606;28;658577;-86
2022/03/29 13:59:53;;;;;;;31.57;15.67;;;15.50;1.00;;;;;;4334937;28;659459;-86
2022/03/29 14:02:41;;;;;;;27.10;15.03;;;15.40;1.00;;;;;;4314665;28;658739;-87
2022/03/29 14:05:30;;;;;;;36.30;17.03;;;15.50;1.00;;;;;;4328304;28;659096;-87
2022/03/29 14:08:19;;;;;;;25.43;14.00;;;15.20;1.00;;;;;;4317531;28;659269;-86
2022/03/29 14:11:08;;;;;;;37.13;16.33;;;15.10;1.00;;;;;;4313255;28;658552;-88
2022/03/29 14:13:56;;;;;;;34.73;17.63;;;15.00;1.00;;;;;;4313969;28;658643;-88
2022/03/29 14:16:43;;;;;;;32.57;16.73;;;14.60;1.00;;;;;;4340482;28;659060;-88
2022/03/29 14:19:31;;;;;;;34.63;16.17;;;14.60;1.00;;;;;;4309583;28;658785;-87
2022/03/29 14:22:20;;;;;;;29.33;15.67;;;14.60;1.00;;;;;;4341290;28;659405;-88
2022/03/29 14:25:07;;;;;;;30.03;15.47;;;14.50;1.00;;;;;;4309181;28;659607;-87
2022/03/29 14:27:55;;;;;;;29.87;16.03;;;14.40;1.00;;;;;;4331652;28;658441;-87
2022/03/29 14:30:43;;;;;;;29.47;15.83;;;14.40;1.00;;;;;;4341462;28;659588;-87